createdAt,value
2019-05-15T00:00:03.343Z,5.70
2019-05-15T00:02:48.071Z,5.70
2019-05-15T00:05:29.196Z,5.70
2019-05-15T00:08:09.884Z,5.70
2019-05-15T00:10:50.033Z,5.70
2019-05-15T00:13:30.583Z,5.80
2019-05-15T00:16:10.532Z,5.60
2019-05-15T00:18:50.678Z,5.60
2019-05-15T00:21:31.149Z,5.70
2019-05-15T00:24:13.138Z,5.70
2019-05-15T00:26:53.573Z,5.70
2019-05-15T00:29:33.674Z,5.60
2019-05-15T00:32:14.034Z,5.50
2019-05-15T00:34:54.193Z,5.40
2019-05-15T00:37:35.424Z,5.40
2019-05-15T00:43:38.659Z,5.40
2019-05-15T00:46:05.869Z,5.40
2019-05-15T00:48:53.041Z,5.40
2019-05-15T00:51:33.714Z,5.40
2019-05-15T00:54:14.714Z,5.40
2019-05-15T00:56:54.392Z,5.30
2019-05-15T00:59:34.897Z,5.10
2019-05-15T01:02:17.851Z,5.10
2019-05-15T01:04:58.581Z,5.20
2019-05-15T01:07:40.463Z,5.10
2019-05-15T01:10:21.840Z,5.00
2019-05-15T01:13:02.267Z,5.20
2019-05-15T01:15:42.178Z,4.90
2019-05-15T03:24:05.106Z,3.80
2019-05-15T03:26:45.019Z,3.70
2019-05-15T03:29:25.001Z,3.70
2019-05-15T03:32:17.967Z,3.60
2019-05-15T03:34:55.754Z,3.70
2019-05-15T03:37:33.146Z,3.70
2019-05-15T03:40:12.339Z,3.70
2019-05-15T03:42:53.903Z,3.70
2019-05-15T03:45:34.229Z,3.70
2019-05-15T03:48:14.263Z,3.60
2019-05-15T03:50:54.755Z,3.60
2019-05-15T03:53:22.645Z,3.60
2019-05-15T03:56:09.844Z,3.70
2019-05-15T03:58:59.726Z,3.60
2019-05-15T04:01:43.673Z,3.70
2019-05-15T04:04:22.027Z,3.70
2019-05-15T04:07:02.298Z,3.70
2019-05-15T04:09:42.838Z,3.80
2019-05-15T04:12:23.434Z,5.40
2019-05-15T04:15:03.087Z,7.80
2019-05-15T04:17:43.506Z,9.40
2019-05-15T04:20:23.706Z,10.60
2019-05-15T04:23:04.027Z,11.40
2019-05-15T04:25:43.782Z,12.30
2019-05-15T04:28:29.229Z,12.70
2019-05-15T04:31:09.552Z,13.60
2019-05-15T04:33:51.695Z,14.30
2019-05-15T04:36:32.000Z,14.70
2019-05-15T04:39:12.273Z,15.40
2019-05-15T04:41:52.236Z,15.70
2019-05-15T04:44:20.315Z,16.10
2019-05-15T04:47:09.646Z,16.60
2019-05-15T04:49:59.008Z,17.90
2019-05-15T04:52:43.429Z,17.60
2019-05-15T04:55:22.259Z,17.80
2019-05-15T04:58:02.307Z,18.10
2019-05-15T05:00:42.534Z,18.70
2019-05-15T05:03:22.502Z,18.40
2019-05-15T05:06:02.540Z,17.20
2019-05-15T05:08:42.965Z,14.40
2019-05-15T05:11:24.059Z,13.10
2019-05-15T05:14:04.899Z,12.40
2019-05-15T05:16:45.201Z,11.80
2019-05-15T05:19:25.204Z,10.70
2019-05-15T05:21:52.308Z,10.10
2019-05-15T05:24:20.572Z,10.00
2019-05-15T05:27:22.734Z,9.50
2019-05-15T05:30:03.033Z,9.10
2019-05-15T05:32:42.733Z,9.00
2019-05-15T05:35:23.472Z,8.60
2019-05-15T05:38:03.174Z,8.60
2019-05-15T05:40:43.325Z,8.20
2019-05-15T05:43:23.291Z,8.00
2019-05-15T05:46:03.098Z,7.80
2019-05-15T05:48:43.860Z,7.40
2019-05-15T05:51:23.673Z,7.30
2019-05-15T05:54:04.934Z,7.10
2019-05-15T05:56:44.556Z,7.20
2019-05-15T05:59:24.990Z,7.00
2019-05-15T06:02:07.971Z,6.90
2019-05-15T06:04:47.972Z,6.80
2019-05-15T06:07:28.054Z,6.70
2019-05-15T06:10:08.823Z,6.80
2019-05-15T06:12:49.649Z,6.90
2019-05-15T06:15:29.629Z,7.10
2019-05-15T06:18:09.458Z,7.30
2019-05-15T06:20:50.183Z,7.00
2019-05-15T06:23:35.225Z,7.00
2019-05-15T06:26:13.278Z,7.10
2019-05-15T06:28:53.682Z,7.20
2019-05-15T06:31:33.309Z,7.30
2019-05-15T06:34:13.872Z,7.30
2019-05-15T06:36:53.848Z,7.50
2019-05-15T06:39:33.973Z,7.40
2019-05-15T06:42:14.553Z,7.50
2019-05-15T06:44:54.340Z,7.40
2019-05-15T06:47:34.567Z,7.50
2019-05-15T06:50:15.012Z,7.40
2019-05-15T06:52:55.472Z,7.70
2019-05-15T06:55:35.846Z,7.50
2019-05-15T06:58:15.325Z,7.50
2019-05-15T07:00:55.686Z,7.60
2019-05-15T07:03:35.777Z,7.80
2019-05-15T07:06:17.969Z,7.90
2019-05-15T07:08:58.638Z,7.60
2019-05-15T07:11:39.353Z,7.70
2019-05-15T07:14:19.685Z,7.80
2019-05-15T07:16:59.573Z,7.60
2019-05-15T07:19:39.544Z,7.90
2019-05-15T07:22:19.968Z,7.80
2019-05-15T07:24:59.549Z,8.00
2019-05-15T07:27:39.639Z,8.10
2019-05-15T07:30:20.469Z,8.30
2019-05-15T07:33:01.310Z,8.30
2019-05-15T07:35:41.277Z,8.30
2019-05-15T07:38:20.954Z,8.30
2019-05-15T07:41:04.299Z,8.30
2019-05-15T07:43:43.013Z,8.50
2019-05-15T07:46:24.241Z,8.50
2019-05-15T07:49:04.667Z,8.30
2019-05-15T07:51:44.414Z,8.30
2019-05-15T07:54:24.802Z,8.50
2019-05-15T07:57:04.849Z,8.40
2019-05-15T07:59:48.058Z,8.30
2019-05-15T08:02:28.502Z,8.40
2019-05-15T08:05:08.586Z,8.60
2019-05-15T08:07:49.303Z,8.70
2019-05-15T08:10:30.792Z,8.70
2019-05-15T08:13:10.673Z,8.60
2019-05-15T08:15:50.756Z,8.70
2019-05-15T08:18:30.862Z,8.70
2019-05-15T08:21:10.889Z,8.90
2019-05-15T08:23:52.795Z,9.00
2019-05-15T08:26:32.489Z,9.10
2019-05-15T08:29:13.666Z,9.00
2019-05-15T08:31:53.340Z,9.10
2019-05-15T08:34:33.665Z,9.10
2019-05-15T08:37:13.635Z,9.10
2019-05-15T08:39:53.290Z,9.20
2019-05-15T08:42:33.474Z,9.40
2019-05-15T08:45:13.615Z,9.40
2019-05-15T08:47:41.088Z,9.20
2019-05-15T08:50:28.773Z,9.30
2019-05-15T08:53:15.642Z,9.40
2019-05-15T08:55:55.985Z,9.30
2019-05-15T08:58:38.204Z,9.20
2019-05-15T09:01:18.422Z,9.40
2019-05-15T09:03:58.598Z,9.40
2019-05-15T09:06:41.300Z,9.40
2019-05-15T09:09:20.377Z,9.20
2019-05-15T09:12:00.183Z,9.40
2019-05-15T09:14:40.394Z,9.50
2019-05-15T09:17:20.441Z,9.60
2019-05-15T09:20:00.553Z,9.70
2019-05-15T09:22:40.274Z,9.80
2019-05-15T09:25:20.825Z,10.00
2019-05-15T09:28:00.926Z,9.90
2019-05-15T09:30:41.076Z,9.70
2019-05-15T09:33:21.571Z,10.00
2019-05-15T09:36:01.329Z,10.00
2019-05-15T09:38:41.136Z,10.00
2019-05-15T09:41:21.093Z,10.10
2019-05-15T09:44:00.974Z,9.90
2019-05-15T09:46:41.218Z,9.90
2019-05-15T09:49:21.150Z,10.00
2019-05-15T09:52:01.261Z,10.10
2019-05-15T09:54:41.386Z,10.10
2019-05-15T09:57:21.118Z,10.20
2019-05-15T10:00:01.138Z,10.20
2019-05-15T10:02:41.790Z,10.30
2019-05-15T10:05:21.434Z,10.30
2019-05-15T10:08:01.456Z,10.40
2019-05-15T10:10:41.804Z,10.50
2019-05-15T10:13:21.933Z,10.90
2019-05-15T10:16:02.153Z,10.90
2019-05-15T10:18:30.485Z,10.90
2019-05-15T10:21:18.582Z,11.10
2019-05-15T10:24:10.000Z,11.20
2019-05-15T10:26:50.078Z,11.20
2019-05-15T10:29:30.089Z,11.20
2019-05-15T10:32:10.573Z,11.20
2019-05-15T10:34:51.218Z,11.40
2019-05-15T10:37:31.094Z,11.30
2019-05-15T10:40:11.024Z,11.30
2019-05-15T10:42:51.478Z,11.40
2019-05-15T10:45:30.995Z,11.30
2019-05-15T10:48:11.549Z,11.20
2019-05-15T10:50:50.990Z,11.10
2019-05-15T10:53:31.845Z,11.10
2019-05-15T10:56:11.851Z,11.00
2019-05-15T10:58:51.511Z,10.90
2019-05-15T11:01:31.514Z,11.00
2019-05-15T11:04:11.871Z,11.10
2019-05-15T11:06:52.801Z,11.40
2019-05-15T11:09:33.162Z,11.50
2019-05-15T11:12:12.581Z,11.50
2019-05-15T11:14:52.793Z,11.60
2019-05-15T11:17:32.584Z,11.60
2019-05-15T11:20:13.320Z,11.30
2019-05-15T11:22:53.955Z,11.30
2019-05-15T11:25:33.838Z,11.60
2019-05-15T11:28:01.601Z,11.70
2019-05-15T11:30:49.383Z,11.60
2019-05-15T11:33:38.441Z,11.70
2019-05-15T11:36:18.664Z,12.00
2019-05-15T11:38:58.630Z,11.90
2019-05-15T11:41:39.011Z,11.90
2019-05-15T11:44:19.901Z,12.00
2019-05-15T11:46:59.550Z,11.90
2019-05-15T11:49:40.154Z,12.00
2019-05-15T11:52:19.968Z,12.00
2019-05-15T11:55:00.098Z,12.20
2019-05-15T11:57:46.857Z,12.40
2019-05-15T12:00:27.175Z,12.20
2019-05-15T12:03:04.310Z,12.10
2019-05-15T12:05:44.638Z,12.10
2019-05-15T12:08:24.463Z,12.20
2019-05-15T12:11:04.676Z,12.10
2019-05-15T12:13:45.063Z,12.20
2019-05-15T12:16:28.792Z,12.30
2019-05-15T12:19:09.619Z,12.30
2019-05-15T12:21:51.125Z,12.30
2019-05-15T12:24:35.158Z,12.30
2019-05-15T12:29:55.111Z,12.20
2019-05-15T12:32:36.732Z,12.10
2019-05-15T12:35:20.483Z,12.10
2019-05-15T12:37:59.464Z,12.30
2019-05-15T12:59:45.965Z,12.20
2019-05-15T13:02:27.912Z,12.20
2019-05-15T13:04:55.511Z,12.40
2019-05-15T13:07:43.024Z,12.50
2019-05-15T13:10:23.610Z,12.60
2019-05-15T13:13:05.726Z,12.40
2019-05-15T13:15:48.252Z,12.50
2019-05-15T13:18:28.742Z,12.20
2019-05-15T13:21:08.865Z,12.40
2019-05-15T13:23:49.622Z,12.30
2019-05-15T13:26:23.864Z,12.40
2019-05-15T13:29:12.350Z,12.50
2019-05-15T13:31:52.481Z,12.40
2019-05-15T13:34:32.675Z,12.50
2019-05-15T13:37:25.199Z,12.60
2019-05-15T13:39:58.556Z,12.70
2019-05-15T13:42:40.163Z,12.80
2019-05-15T13:45:19.993Z,12.50
2019-05-15T13:48:00.589Z,12.50
2019-05-15T13:50:40.807Z,12.50
2019-05-15T13:53:21.757Z,12.60
2019-05-15T13:56:01.458Z,12.50
2019-05-15T13:58:41.625Z,12.60
2019-05-15T14:01:21.965Z,12.50
2019-05-15T14:04:02.200Z,12.90
2019-05-15T14:06:42.079Z,12.80
2019-05-15T14:09:23.343Z,13.00
2019-05-15T14:12:03.785Z,12.50
2019-05-15T14:14:44.706Z,12.50
2019-05-15T14:17:14.265Z,12.30
2019-05-15T14:19:42.057Z,12.40
2019-05-15T14:22:22.124Z,12.50
2019-05-15T14:25:02.848Z,12.40
2019-05-15T14:27:43.518Z,12.40
2019-05-15T14:30:23.813Z,12.40
2019-05-15T14:33:04.249Z,12.60
2019-05-15T14:35:44.217Z,12.50
2019-05-15T14:38:24.822Z,12.40
2019-05-15T14:41:04.954Z,12.30
2019-05-15T14:43:48.328Z,12.50
2019-05-15T14:46:27.811Z,12.50
2019-05-15T14:48:55.266Z,12.30
2019-05-15T14:51:24.271Z,12.20
2019-05-15T14:54:04.193Z,12.30
2019-05-15T14:56:44.683Z,12.50
2019-05-15T14:59:25.869Z,12.60
2019-05-15T15:02:05.973Z,12.80
2019-05-15T15:04:48.392Z,12.80
2019-05-15T15:07:28.379Z,12.90
2019-05-15T15:10:09.541Z,13.00
2019-05-15T15:12:50.202Z,12.80
2019-05-15T15:15:30.811Z,12.90
2019-05-15T15:18:11.309Z,12.90
2019-05-15T15:20:53.845Z,12.60
2019-05-15T15:23:33.848Z,12.60
2019-05-15T15:26:14.136Z,12.40
2019-05-15T15:28:55.002Z,12.30
2019-05-15T15:31:39.008Z,12.40
2019-05-15T15:34:20.921Z,12.50
2019-05-15T15:37:03.022Z,12.50
2019-05-15T15:39:43.301Z,12.50
2019-05-15T15:42:24.381Z,12.30
2019-05-15T15:45:04.580Z,12.20
2019-05-15T15:47:45.119Z,12.10
2019-05-15T15:50:25.394Z,12.20
2019-05-15T15:53:05.601Z,12.30
2019-05-15T15:55:45.810Z,12.20
2019-05-15T15:58:25.670Z,12.10
2019-05-15T16:01:05.858Z,12.10
2019-05-15T16:03:33.997Z,12.00
2019-05-15T16:06:20.745Z,12.00
2019-05-15T16:09:00.530Z,12.00
2019-05-15T16:11:40.980Z,11.80
2019-05-15T16:14:20.817Z,11.60
2019-05-15T16:17:01.048Z,11.60
2019-05-15T16:19:41.246Z,11.60
2019-05-15T16:22:21.465Z,11.40
2019-05-15T16:25:02.292Z,11.40
2019-05-15T16:27:42.669Z,11.50
2019-05-15T16:30:22.597Z,11.10
2019-05-15T16:33:02.990Z,11.00
2019-05-15T16:35:43.025Z,11.00
2019-05-15T16:38:23.269Z,11.00
2019-05-15T16:41:03.349Z,11.20
2019-05-15T16:43:43.722Z,11.00
2019-05-15T16:46:24.491Z,10.90
2019-05-15T16:49:05.260Z,10.80
2019-05-15T16:51:45.495Z,10.80
2019-05-15T16:54:25.339Z,10.90
2019-05-15T16:57:05.271Z,11.00
2019-05-15T16:59:45.289Z,10.90
2019-05-15T17:02:25.018Z,10.70
2019-05-15T17:05:05.608Z,10.60
2019-05-15T17:07:45.881Z,10.60
2019-05-15T17:10:28.021Z,10.50
2019-05-15T17:13:08.874Z,10.40
2019-05-15T17:15:49.611Z,10.30
2019-05-15T17:18:18.119Z,10.30
2019-05-15T17:21:12.340Z,10.10
2019-05-15T17:23:52.532Z,10.20
2019-05-15T17:26:32.981Z,10.10
2019-05-15T17:29:13.594Z,10.20
2019-05-15T17:31:42.909Z,10.10
2019-05-15T17:34:29.725Z,9.90
2019-05-15T17:36:58.312Z,9.90
2019-05-15T17:39:52.274Z,9.90
2019-05-15T17:42:32.226Z,9.80
2019-05-15T17:45:12.290Z,9.90
2019-05-15T17:47:52.546Z,9.80
2019-05-15T17:50:44.896Z,9.70
2019-05-15T17:53:15.314Z,9.80
2019-05-15T17:55:44.234Z,9.90
2019-05-15T17:58:32.422Z,9.90
2019-05-15T18:01:12.945Z,10.00
2019-05-15T18:03:53.273Z,10.00
2019-05-15T18:06:33.881Z,10.10
2019-05-15T18:09:14.344Z,10.10
2019-05-15T18:11:54.291Z,10.20
2019-05-15T18:14:34.585Z,10.10
2019-05-15T18:17:01.975Z,10.00
2019-05-15T18:19:29.396Z,10.00
2019-05-15T18:21:59.269Z,10.00
2019-05-15T18:24:53.261Z,9.90
2019-05-15T18:27:33.490Z,10.00
2019-05-15T18:30:14.012Z,10.00
2019-05-15T18:32:42.802Z,10.00
2019-05-15T18:35:10.766Z,10.00
2019-05-15T18:37:50.980Z,10.10
2019-05-15T18:40:38.520Z,10.00
2019-05-15T18:43:35.069Z,10.00
2019-05-15T18:46:18.342Z,10.00
2019-05-15T18:48:58.579Z,10.00
2019-05-15T18:51:38.573Z,10.00
2019-05-15T18:54:08.013Z,10.10
2019-05-15T18:57:16.029Z,10.00
2019-05-15T18:59:44.101Z,10.00
2019-05-15T19:02:31.201Z,10.10
2019-05-15T19:04:58.842Z,10.10
2019-05-15T19:07:45.652Z,10.10
2019-05-15T19:10:28.201Z,10.10
2019-05-15T19:13:09.249Z,10.10
2019-05-15T19:15:50.463Z,10.00
2019-05-15T19:18:30.165Z,10.00
2019-05-15T19:20:58.750Z,10.00
2019-05-15T19:24:07.784Z,10.00
2019-05-15T19:26:35.413Z,10.20
2019-05-15T19:29:17.952Z,10.10
2019-05-15T19:31:58.282Z,10.10
2019-05-15T19:34:38.886Z,10.20
2019-05-15T19:37:20.100Z,10.10
2019-05-15T19:39:59.738Z,10.00
2019-05-15T19:42:40.316Z,10.00
2019-05-15T19:45:20.413Z,10.00
2019-05-15T19:48:00.663Z,9.90
2019-05-15T19:50:40.866Z,10.00
2019-05-15T19:53:20.834Z,9.80
2019-05-15T19:56:01.026Z,9.80
2019-05-15T19:58:41.042Z,9.80
2019-05-15T20:01:22.107Z,10.00
2019-05-15T20:04:02.178Z,10.00
2019-05-15T20:06:42.832Z,9.90
2019-05-15T20:09:23.030Z,9.60
2019-05-15T20:12:02.821Z,9.60
2019-05-15T20:14:43.042Z,9.60
2019-05-15T20:17:23.149Z,9.50
2019-05-15T20:20:03.516Z,9.60
2019-05-15T20:22:43.517Z,9.60
2019-05-15T20:25:23.833Z,9.50
2019-05-15T20:28:04.194Z,9.50
2019-05-15T20:30:32.141Z,9.40
2019-05-15T20:33:19.138Z,9.40
2019-05-15T20:35:59.966Z,9.40
2019-05-15T20:38:39.871Z,9.50
2019-05-15T20:41:20.082Z,9.50
2019-05-15T20:44:00.107Z,9.60
2019-05-15T20:52:39.628Z,10.00
2019-05-15T20:55:20.238Z,10.00
2019-05-15T20:58:01.145Z,9.90
2019-05-15T21:00:29.732Z,9.90
2019-05-15T21:03:17.983Z,9.80
2019-05-15T21:06:09.183Z,9.80
2019-05-15T21:08:48.906Z,9.80
2019-05-15T21:11:29.454Z,9.90
2019-05-15T21:14:09.009Z,9.80
2019-05-15T21:16:36.213Z,9.80
2019-05-15T21:19:23.095Z,9.90
2019-05-15T21:22:04.157Z,9.90
2019-05-15T21:24:31.697Z,9.80
2019-05-15T21:27:23.823Z,9.80
2019-05-15T21:30:20.435Z,9.70
2019-05-15T21:33:00.799Z,9.70
2019-05-15T21:35:41.444Z,9.70
2019-05-15T21:38:21.506Z,9.70
2019-05-15T21:41:01.358Z,9.70
2019-05-15T21:43:41.881Z,9.70
2019-05-15T21:46:22.069Z,9.60
2019-05-15T21:49:03.041Z,9.60
2019-05-15T21:51:43.266Z,9.70
2019-05-15T21:54:23.706Z,9.80
2019-05-15T21:57:18.609Z,9.70
2019-05-15T21:59:47.141Z,9.60
2019-05-15T22:02:29.215Z,9.60
2019-05-15T22:05:10.074Z,9.60
2019-05-15T22:07:51.151Z,9.60
2019-05-15T22:10:31.005Z,9.60
2019-05-15T22:13:11.321Z,9.60
2019-05-15T22:15:51.225Z,9.60
2019-05-15T22:18:31.506Z,9.60
2019-05-15T22:21:11.628Z,9.60
2019-05-15T22:23:51.733Z,9.60
2019-05-15T22:26:32.130Z,9.60
2019-05-15T22:29:12.402Z,9.60
2019-05-15T22:31:51.950Z,9.70
2019-05-15T22:34:32.285Z,9.70
2019-05-15T22:37:12.361Z,9.70
2019-05-15T22:39:52.779Z,9.70
2019-05-15T22:42:32.446Z,9.60
2019-05-15T22:45:12.227Z,9.50
2019-05-15T22:47:52.913Z,9.50
2019-05-15T22:50:32.693Z,9.50
2019-05-15T22:53:13.071Z,9.60
2019-05-15T22:55:52.864Z,9.50
2019-05-15T22:58:33.233Z,9.50
2019-05-15T23:01:12.838Z,9.50
2019-05-15T23:03:53.464Z,9.60
2019-05-15T23:06:33.313Z,9.60
2019-05-15T23:09:13.633Z,9.60
2019-05-15T23:11:53.341Z,9.50
2019-05-15T23:14:33.189Z,9.50
2019-05-15T23:17:13.684Z,9.40
2019-05-15T23:19:53.600Z,9.40
2019-05-15T23:22:34.076Z,9.40
2019-05-15T23:25:14.157Z,9.30
2019-05-15T23:27:54.790Z,9.30
2019-05-15T23:30:35.514Z,9.30
2019-05-15T23:33:15.830Z,9.30
2019-05-15T23:35:55.993Z,9.30
2019-05-15T23:38:38.334Z,9.40
2019-05-15T23:41:19.036Z,9.40
2019-05-15T23:43:59.461Z,9.40
2019-05-15T23:46:39.634Z,9.40
2019-05-15T23:49:20.069Z,9.40
2019-05-15T23:52:00.050Z,9.30
2019-05-15T23:54:40.529Z,9.40
2019-05-15T23:57:20.421Z,9.40
